Terminal Aerodrome Forecast
Issued by NWS

Home | Current Version | Previous Version | Text Only | Print | Product List | Glossary On
Versions: 1 2 3 4 5 6 7 8 9 10 11 12 13 14 15 16 17
000
FTUS43 KMPX 230701 AAA
TAFAXN
TAF AMD
KAXN 230701Z 2307/2406 34008KT P6SM VCSH SCT008 OVC015
      TEMPO 2307/2311 BKN008
     FM231800 01012G20KT P6SM VCSH SCT015 OVC025
     FM240100 02008KT P6SM SCT025=

USA.gov is the U.S. government's official web portal to all federal, state and local government web resources and services.